Time;durP1;ratioP1;P1;durP2;ratioP2;P2;SDS_P1;SDS_P2;PMS_P1;PMS_P2;Temp;Humidity;BMP_temperature;BMP_pressure;BME280_temperature;BME280_humidity;BME280_pressure;Samples;Min_cycle;Max_cycle;Signal;HPM_P1;HPM_P2
2022/01/06 00:58:22;;;;;;;84.97;46.78;;;205.10;2252.80;;;;;;4934650;29;20506;-85
2022/01/06 01:41:48;;;;;;;81.28;47.25;;;179.80;2252.80;;;;;;4929719;29;20031;-84
2022/01/06 02:27:16;;;;;;;44.78;29.45;;;205.40;2252.80;;;;;;4863032;29;20125;-88
2022/01/06 02:30:44;;;;;;;40.40;28.23;;;205.40;2252.80;;;;;;4862495;29;20059;-87
2022/01/06 02:33:57;;;;;;;36.25;27.20;;;205.50;2252.80;;;;;;4807080;29;20522;-87
2022/01/06 02:36:55;;;;;;;40.45;28.60;;;205.50;2252.80;;;;;;4807468;29;20030;-88
2022/01/06 02:47:16;;;;;;;36.30;26.05;;;205.60;2252.80;;;;;;4771867;30;20388;-87
2022/01/06 02:53:42;;;;;;;32.63;25.08;;;205.70;2252.80;;;;;;4788992;29;20064;-87
2022/01/06 02:56:32;;;;;;;37.08;25.27;;;230.40;2252.80;;;;;;4791185;29;20031;-88
2022/01/06 02:59:37;;;;;;;39.80;27.88;;;230.40;2252.80;;;;;;4827401;29;20530;-88
2022/01/06 03:02:29;;;;;;;39.30;27.77;;;230.40;2252.80;;;;;;4856363;29;20165;-88
2022/01/06 03:05:24;;;;;;;43.13;28.52;;;230.40;2252.80;;;;;;4914738;29;20092;-87
2022/01/06 03:08:03;;;;;;;51.75;33.97;;;230.60;2252.80;;;;;;4884721;29;20040;-88
2022/01/06 03:11:10;;;;;;;53.42;33.83;;;205.70;2252.80;;;;;;4898182;29;20469;-88
2022/01/06 03:17:36;;;;;;;29.63;23.38;;;205.70;2252.80;;;;;;4917813;29;20424;-87
2022/01/06 03:20:42;;;;;;;33.80;23.52;;;205.60;2252.80;;;;;;4890838;29;20123;-87
2022/01/06 03:23:19;;;;;;;43.75;29.77;;;205.70;2252.80;;;;;;4896741;29;20025;-87
2022/01/06 03:26:02;;;;;;;40.13;28.40;;;205.60;2252.80;;;;;;4882847;29;20024;-87
2022/01/06 03:28:39;;;;;;;46.00;30.73;;;205.70;2252.80;;;;;;4883563;29;20032;-88
2022/01/06 03:31:28;;;;;;;40.15;28.40;;;205.70;2252.80;;;;;;4883455;29;20053;-87
2022/01/06 03:34:48;;;;;;;40.78;29.35;;;205.70;2252.80;;;;;;4898291;29;20041;-88
2022/01/06 03:37:39;;;;;;;42.38;28.27;;;205.60;2252.80;;;;;;4895701;29;20024;-88
2022/01/06 03:40:29;;;;;;;46.58;29.45;;;205.60;2252.80;;;;;;4895032;29;20040;-88
2022/01/06 03:43:43;;;;;;;53.30;33.78;;;205.60;2252.80;;;;;;4897191;29;20061;-88
2022/01/06 03:47:26;;;;;;;;;;;;;;;;;;;;;
2022/01/06 03:50:45;;;;;;;52.08;33.38;;;205.60;2252.80;;;;;;4888386;29;20101;-88
2022/01/06 03:53:31;;;;;;;52.95;35.42;;;205.60;2252.80;;;;;;4865164;29;20492;-86
2022/01/06 03:56:42;;;;;;;78.40;40.20;;;205.60;2252.80;;;;;;4895496;29;20044;-88
2022/01/06 04:02:05;;;;;;;64.97;36.40;;;205.50;2252.80;;;;;;4897907;29;20036;-87
2022/01/06 04:04:33;;;;;;;47.42;30.92;;;205.60;2252.80;;;;;;4896413;29;20028;-88
2022/01/06 04:14:38;;;;;;;38.72;25.58;;;205.50;2252.80;;;;;;4879519;29;20126;-86
2022/01/06 04:18:02;;;;;;;37.28;26.30;;;205.50;2252.80;;;;;;4866440;29;20082;-86
2022/01/06 04:21:14;;;;;;;48.83;34.17;;;205.60;2252.80;;;;;;4870583;29;20064;-88
2022/01/06 04:24:10;;;;;;;40.58;28.55;;;205.70;2252.80;;;;;;4846617;29;20033;-88
2022/01/06 04:27:07;;;;;;;37.70;26.35;;;205.70;2252.80;;;;;;4876394;29;20096;-87
2022/01/06 04:30:41;;;;;;;44.10;28.35;;;205.60;2252.80;;;;;;4846645;29;20454;-86
2022/01/06 04:33:33;;;;;;;46.95;30.42;;;205.60;2252.80;;;;;;4907221;29;20032;-88
2022/01/06 04:36:48;;;;;;;46.55;29.67;;;205.60;2252.80;;;;;;4916390;29;20476;-87
2022/01/06 04:39:34;;;;;;;49.38;32.28;;;205.50;2252.80;;;;;;4886371;29;20028;-87
2022/01/06 04:42:33;;;;;;;38.00;28.25;;;205.60;2252.80;;;;;;4915838;29;20040;-87
2022/01/06 04:45:11;;;;;;;44.97;29.67;;;205.60;2252.80;;;;;;4920855;29;20036;-88
2022/01/06 04:48:14;;;;;;;43.92;29.70;;;205.60;2252.80;;;;;;4919824;29;20027;-87
2022/01/06 04:51:30;;;;;;;50.83;30.63;;;205.70;2252.80;;;;;;4934795;29;20034;-87
2022/01/06 04:54:13;;;;;;;48.85;31.08;;;205.70;2252.80;;;;;;4933113;29;20078;-87
2022/01/06 04:57:01;;;;;;;63.90;37.60;;;205.70;2252.80;;;;;;4930583;29;20038;-87
2022/01/06 04:59:41;;;;;;;64.07;38.33;;;205.70;2252.80;;;;;;4930521;29;20106;-86
2022/01/06 05:02:14;;;;;;;78.20;47.78;;;205.70;2252.80;;;;;;4936342;29;20031;-87
2022/01/06 05:05:03;;;;;;;90.45;48.38;;;205.70;2252.80;;;;;;4923342;29;20043;-87
2022/01/06 05:07:51;;;;;;;95.47;51.88;;;205.70;2252.80;;;;;;4935168;29;20480;-87
2022/01/06 05:10:41;;;;;;;80.10;48.83;;;205.60;2252.80;;;;;;4936264;29;20035;-87
2022/01/06 05:13:11;;;;;;;80.65;44.25;;;205.60;2252.80;;;;;;4910272;29;20043;-86
2022/01/06 05:15:40;;;;;;;71.07;46.60;;;205.60;2252.80;;;;;;4903405;29;20040;-86
2022/01/06 05:18:35;;;;;;;65.65;41.95;;;205.50;2252.80;;;;;;4903437;29;20028;-87
2022/01/06 05:21:09;;;;;;;59.33;39.75;;;205.50;2252.80;;;;;;4920411;29;20040;-87
2022/01/06 05:23:35;;;;;;;;;;;205.50;2252.80;;;;;;4904852;29;20412;-88
2022/01/06 05:26:06;;;;;;;61.75;38.33;;;205.40;2252.80;;;;;;4932813;29;19983;-89
2022/01/06 05:29:12;;;;;;;62.22;38.85;;;205.30;2252.80;;;;;;4903834;29;20027;-87
2022/01/06 05:31:50;;;;;;;55.75;36.22;;;205.30;2252.80;;;;;;4935931;29;20035;-88
2022/01/06 05:35:05;;;;;;;55.65;36.33;;;205.30;2252.80;;;;;;4900324;29;20031;-87
2022/01/06 05:38:20;;;;;;;55.78;36.88;;;205.30;2252.80;;;;;;4930800;29;20064;-87
2022/01/06 05:41:31;;;;;;;55.65;36.97;;;205.20;2252.80;;;;;;4932258;29;20048;-88
2022/01/06 05:43:59;;;;;;;47.58;33.78;;;205.20;2252.80;;;;;;4926482;29;20034;-86
2022/01/06 05:47:06;;;;;;;44.63;33.00;;;205.20;2252.80;;;;;;4936684;29;20371;-87
2022/01/06 05:49:49;;;;;;;55.42;36.95;;;205.20;2252.80;;;;;;4935012;29;20051;-87
2022/01/06 05:53:18;;;;;;;46.15;34.20;;;205.20;2252.80;;;;;;4919220;29;20449;-88
2022/01/06 05:56:42;;;;;;;39.00;26.83;;;205.20;2252.80;;;;;;4915690;29;20028;-88
2022/01/06 06:00:01;;;;;;;40.47;27.67;;;205.20;2252.80;;;;;;4899996;29;20031;-87
2022/01/06 06:03:27;;;;;;;34.67;25.45;;;205.30;2252.80;;;;;;4862336;29;20037;-87
2022/01/06 06:06:24;;;;;;;35.90;26.13;;;205.30;2252.80;;;;;;4878012;29;20093;-88
2022/01/06 06:09:35;;;;;;;41.83;28.20;;;205.30;2252.80;;;;;;4822093;29;20080;-88
2022/01/06 06:20:09;;;;;;;43.90;32.50;;;205.40;2252.80;;;;;;4802958;29;20557;-88
2022/01/06 06:23:32;;;;;;;45.22;32.05;;;205.40;2252.80;;;;;;4786465;29;20051;-89
2022/01/06 06:34:05;;;;;;;81.30;60.13;;;205.50;2252.80;;;;;;4799332;29;20553;-88
2022/01/06 06:44:48;;;;;;;123.07;75.28;;;205.50;2252.80;;;;;;4804553;29;20458;-88
2022/01/06 06:47:19;;;;;;;124.05;86.60;;;205.60;2252.80;;;;;;4767421;30;20035;-88
2022/01/06 06:50:34;;;;;;;102.07;72.18;;;205.60;2252.80;;;;;;4775957;30;20035;-88
2022/01/06 06:53:29;;;;;;;62.10;42.92;;;205.60;2252.80;;;;;;4788726;29;20174;-88
2022/01/06 06:56:46;;;;;;;51.50;35.00;;;205.70;2252.80;;;;;;4830547;29;20034;-88
2022/01/06 07:00:04;;;;;;;60.60;38.13;;;230.40;2252.80;;;;;;4843294;29;20423;-87
2022/01/06 07:09:33;;;;;;;;;;;230.50;2252.80;;;;;;4826005;29;20522;-88
2022/01/06 07:13:16;;;;;;;132.93;70.82;;;230.60;2252.80;;;;;;4841103;29;19934;-89
2022/01/06 07:15:44;;;;;;;163.80;91.55;;;230.60;2252.80;;;;;;4843167;29;20030;-89
2022/01/06 07:18:46;;;;;;;149.18;84.60;;;230.70;2252.80;;;;;;4815680;29;20030;-90
2022/01/06 07:22:08;;;;;;;98.47;62.78;;;230.70;2252.80;;;;;;4840596;29;20045;-87
2022/01/06 07:25:41;;;;;;;118.65;82.78;;;230.70;2252.80;;;;;;4838734;29;20423;-88
2022/01/06 07:29:22;;;;;;;109.37;72.37;;;230.50;2252.80;;;;;;4864141;29;20032;-89
2022/01/06 07:32:44;;;;;;;117.15;81.72;;;205.70;2252.80;;;;;;4830544;29;20320;-89
2022/01/06 07:59:27;;;;;;;73.32;52.50;;;230.70;2252.80;;;;;;4780383;29;20049;-85
2022/01/06 08:02:01;;;;;;;77.22;58.58;;;230.60;2252.80;;;;;;4801960;29;20122;-88
2022/01/06 08:05:12;;;;;;;96.40;72.07;;;230.50;2252.80;;;;;;4805983;29;20030;-86
2022/01/06 08:22:13;;;;;;;157.98;108.20;;;230.60;2252.80;;;;;;4821320;29;20045;-88
2022/01/06 08:25:02;;;;;;;49.90;37.90;;;230.60;2252.80;;;;;;4840088;29;20052;-88
2022/01/06 08:31:25;;;;;;;42.53;33.40;;;230.60;2252.80;;;;;;4821471;29;20053;-88
2022/01/06 08:34:36;;;;;;;38.50;28.10;;;230.60;2252.80;;;;;;4860404;29;20041;-86
2022/01/06 08:37:46;;;;;;;;;;;230.50;2252.80;;;;;;4860856;29;20026;-88
2022/01/06 08:50:54;;;;;;;34.15;24.67;;;205.70;2252.80;;;;;;4885497;29;20032;-87
2022/01/06 08:53:40;;;;;;;63.05;46.53;;;205.70;2252.80;;;;;;4862298;29;20124;-86
2022/01/06 09:04:47;;;;;;;31.33;23.52;;;205.70;2252.80;;;;;;4903409;29;20051;-86
2022/01/06 09:21:22;;;;;;;39.53;27.67;;;205.60;2252.80;;;;;;4941200;29;20018;-87
2022/01/06 09:27:06;;;;;;;27.05;21.40;;;205.50;2252.80;;;;;;4949116;28;20026;-84
2022/01/06 10:15:50;;;;;;;32.78;22.23;;;204.80;2252.80;;;;;;4924897;29;20087;-85
2022/01/06 10:19:14;;;;;;;33.50;24.23;;;180.00;2252.80;;;;;;4753906;30;20377;-86
2022/01/06 10:22:56;;;;;;;44.97;31.92;;;179.70;2252.80;;;;;;4701268;30;20073;-85
2022/01/06 10:26:37;;;;;;;32.10;22.27;;;179.70;2252.80;;;;;;4666584;30;20602;-83
2022/01/06 10:30:50;;;;;;;24.27;16.83;;;179.80;2252.80;;;;;;4632538;31;20039;-85
2022/01/06 10:38:21;;;;;;;;;;;;;;;;;;;;;
2022/01/06 10:44:00;;;;;;;23.85;15.95;;;179.40;2252.80;;;;;;5110416;27;20456;-80
2022/01/06 10:46:31;;;;;;;23.88;17.75;;;179.50;2252.80;;;;;;5110507;28;20028;-80
2022/01/06 10:48:59;;;;;;;45.45;27.35;;;179.50;2252.80;;;;;;5109256;28;20076;-79
2022/01/06 10:51:32;;;;;;;29.60;18.35;;;179.40;2252.80;;;;;;5109445;28;20447;-82
2022/01/06 10:53:58;;;;;;;30.70;19.95;;;179.30;2252.80;;;;;;5109394;28;20063;-81
2022/01/06 10:56:25;;;;;;;27.30;16.33;;;179.20;2252.80;;;;;;5109446;28;20054;-82
2022/01/06 10:58:56;;;;;;;18.42;13.23;;;179.20;2252.80;;;;;;5108342;28;20069;-78
2022/01/06 11:01:21;;;;;;;14.70;10.23;;;154.50;2252.80;;;;;;5116940;28;20020;-80
2022/01/06 11:03:47;;;;;;;16.50;11.52;;;179.20;2252.80;;;;;;5139458;27;20073;-82
2022/01/06 11:06:13;;;;;;;14.80;10.77;;;179.30;2252.80;;;;;;5112675;27;20401;-84
2022/01/06 11:08:43;;;;;;;13.20;10.70;;;179.30;2252.80;;;;;;5109928;28;20463;-83
2022/01/06 11:13:42;;;;;;;48.85;33.05;;;179.30;2252.80;;;;;;5111166;28;20106;-82
2022/01/06 11:16:12;;;;;;;57.83;38.72;;;179.40;2252.80;;;;;;5110423;28;20020;-81
2022/01/06 11:18:42;;;;;;;27.92;22.35;;;179.40;2252.80;;;;;;5107044;28;20366;-81
2022/01/06 11:21:15;;;;;;;38.10;27.15;;;179.40;2252.80;;;;;;5121925;28;20027;-81
2022/01/06 11:23:41;;;;;;;43.50;29.50;;;179.50;2252.80;;;;;;5118069;28;20154;-81
2022/01/06 11:26:15;;;;;;;39.85;28.48;;;179.40;2252.80;;;;;;5113742;28;20024;-81
2022/01/06 11:28:42;;;;;;;65.15;44.00;;;179.60;2252.80;;;;;;5089003;28;20020;-81
2022/01/06 11:31:21;;;;;;;53.90;37.60;;;179.50;2252.80;;;;;;5089513;28;20030;-79
2022/01/06 11:33:50;;;;;;;43.72;29.23;;;179.30;2252.80;;;;;;5089132;28;20352;-81
2022/01/06 11:36:24;;;;;;;26.20;18.65;;;179.30;2252.80;;;;;;5089126;28;20119;-81
2022/01/06 11:38:51;;;;;;;26.50;18.70;;;179.40;2252.80;;;;;;5089071;28;20020;-81
2022/01/06 11:41:18;;;;;;;20.33;15.75;;;179.50;2252.80;;;;;;5088802;28;20115;-81
2022/01/06 11:43:46;;;;;;;18.65;14.00;;;179.60;2252.80;;;;;;5088502;28;20052;-81
2022/01/06 11:46:13;;;;;;;11.27;8.85;;;179.50;2252.80;;;;;;5089100;28;20036;-79
2022/01/06 11:48:53;;;;;;;16.98;12.13;;;179.70;2252.80;;;;;;5088781;28;20020;-79
2022/01/06 11:51:26;;;;;;;17.77;11.35;;;179.60;2252.80;;;;;;5088826;28;20123;-75
2022/01/06 11:53:52;;;;;;;;;;;179.60;2252.80;;;;;;5085054;28;20030;-76
2022/01/06 11:56:18;;;;;;;29.88;16.65;;;179.40;2252.80;;;;;;5075294;28;19904;-81
2022/01/06 11:59:00;;;;;;;28.23;17.23;;;179.30;2252.80;;;;;;5075688;28;20486;-84
2022/01/06 12:01:27;;;;;;;20.85;14.57;;;179.20;2252.80;;;;;;5075770;28;20021;-85
2022/01/06 12:03:53;;;;;;;33.90;21.77;;;179.50;2252.80;;;;;;5076139;28;20460;-86
2022/01/06 12:06:34;;;;;;;29.00;18.02;;;154.50;2252.80;;;;;;5075910;28;20107;-83
2022/01/06 12:09:01;;;;;;;43.08;26.08;;;154.50;2252.80;;;;;;5080924;28;20108;-83
2022/01/06 12:11:33;;;;;;;41.22;25.00;;;154.30;2252.80;;;;;;5093530;28;20032;-85
2022/01/06 12:14:00;;;;;;;39.53;21.25;;;154.40;2252.80;;;;;;5075818;28;20032;-85
2022/01/06 12:16:38;;;;;;;23.33;12.55;;;154.40;2252.80;;;;;;5075419;28;20029;-86
2022/01/06 12:19:17;;;;;;;33.15;16.83;;;154.40;2252.80;;;;;;5074946;28;20020;-82
2022/01/06 12:21:43;;;;;;;27.52;14.70;;;154.20;2252.80;;;;;;5075051;28;20021;-86
2022/01/06 12:24:13;;;;;;;38.28;18.65;;;154.30;2252.80;;;;;;5075419;28;20111;-84
2022/01/06 12:26:40;;;;;;;29.02;17.23;;;154.30;2252.80;;;;;;5075129;28;20055;-81
2022/01/06 12:29:21;;;;;;;44.85;21.25;;;153.80;2252.80;;;;;;5074680;28;20055;-83
2022/01/06 12:31:49;;;;;;;19.77;13.52;;;154.30;2252.80;;;;;;5074874;28;20043;-82
2022/01/06 12:34:15;;;;;;;17.48;12.55;;;154.10;2252.80;;;;;;5074968;28;20414;-81
2022/01/06 12:36:44;;;;;;;15.35;11.35;;;154.20;2252.80;;;;;;5074462;28;20073;-81
2022/01/06 12:39:18;;;;;;;27.80;16.85;;;154.20;2252.80;;;;;;5074885;28;20029;-83
2022/01/06 12:41:46;;;;;;;23.25;14.45;;;154.20;2252.80;;;;;;5074405;28;20074;-82
2022/01/06 12:44:18;;;;;;;19.45;14.25;;;154.10;2252.80;;;;;;5074129;28;20024;-83
2022/01/06 12:46:45;;;;;;;24.83;16.27;;;154.10;2252.80;;;;;;5075862;28;20066;-82
2022/01/06 12:49:12;;;;;;;34.00;19.92;;;154.10;2252.80;;;;;;5074522;28;20036;-82
2022/01/06 12:51:45;;;;;;;25.67;18.88;;;154.20;2252.80;;;;;;5075467;28;20021;-82
2022/01/06 12:54:19;;;;;;;35.58;22.98;;;154.20;2252.80;;;;;;5074454;28;20017;-81
2022/01/06 12:56:51;;;;;;;31.92;24.05;;;154.20;2252.80;;;;;;5073950;28;20115;-82
2022/01/06 12:59:24;;;;;;;41.95;28.05;;;154.20;2252.80;;;;;;5074441;28;20333;-81
2022/01/06 13:01:56;;;;;;;26.17;18.90;;;154.20;2252.80;;;;;;5074024;28;20021;-82
2022/01/06 13:04:29;;;;;;;40.50;26.05;;;154.10;2252.80;;;;;;5074007;28;20109;-84
2022/01/06 13:06:57;;;;;;;32.08;21.13;;;154.20;2252.80;;;;;;5073520;28;20380;-81
2022/01/06 13:09:25;;;;;;;30.95;20.95;;;154.20;2252.80;;;;;;5074239;28;20121;-84
2022/01/06 13:11:55;;;;;;;18.73;13.68;;;154.20;2252.80;;;;;;5074141;28;20032;-84
2022/01/06 13:14:45;;;;;;;24.55;18.30;;;154.20;2252.80;;;;;;5074515;28;20085;-84
2022/01/06 13:17:26;;;;;;;21.08;16.42;;;154.20;2252.80;;;;;;5074409;28;20023;-82
2022/01/06 13:19:59;;;;;;;21.55;15.70;;;154.20;2252.80;;;;;;5074160;28;20035;-85
2022/01/06 13:25:19;;;;;;;32.13;23.33;;;154.30;2252.80;;;;;;5075496;28;20071;-85
2022/01/06 13:28:13;;;;;;;27.00;20.20;;;154.30;2252.80;;;;;;5074298;28;20054;-85
2022/01/06 13:30:48;;;;;;;22.02;15.40;;;154.20;2252.80;;;;;;5075687;28;20024;-87
2022/01/06 13:33:16;;;;;;;22.17;17.13;;;154.30;2252.80;;;;;;5074122;28;20460;-82
2022/01/06 13:35:56;;;;;;;36.88;24.42;;;154.20;2252.80;;;;;;5073950;28;20021;-83
2022/01/06 13:38:24;;;;;;;82.28;46.35;;;154.30;2252.80;;;;;;5073789;28;20124;-84
2022/01/06 13:40:53;;;;;;;39.85;24.58;;;154.10;2252.80;;;;;;5074965;28;20024;-83
2022/01/06 13:43:23;;;;;;;23.88;16.88;;;154.20;2252.80;;;;;;5073178;28;20082;-85
2022/01/06 13:45:51;;;;;;;21.02;15.70;;;154.20;2252.80;;;;;;5073636;28;20025;-84
2022/01/06 13:48:38;;;;;;;33.60;24.92;;;154.10;2252.80;;;;;;5073786;28;20023;-83
2022/01/06 13:51:13;;;;;;;38.92;25.83;;;154.20;2252.80;;;;;;5073553;28;20451;-81
2022/01/06 13:53:42;;;;;;;37.38;25.30;;;154.20;2252.80;;;;;;5074780;28;20139;-84
2022/01/06 13:56:32;;;;;;;67.30;42.00;;;154.10;2252.80;;;;;;5073476;28;20028;-84
2022/01/06 13:59:14;;;;;;;34.33;23.33;;;154.10;2252.80;;;;;;5074296;28;20442;-87
2022/01/06 14:01:43;;;;;;;62.17;41.45;;;154.20;2252.80;;;;;;5073792;28;20055;-88
2022/01/06 14:04:20;;;;;;;37.28;26.30;;;154.10;2252.80;;;;;;5073780;28;20025;-85
2022/01/06 14:06:47;;;;;;;119.30;60.63;;;153.90;2252.80;;;;;;5073602;28;20086;-87
2022/01/06 14:09:13;;;;;;;54.83;33.55;;;153.80;2252.80;;;;;;5073734;28;20020;-87
2022/01/06 14:11:40;;;;;;;51.97;33.67;;;153.90;2252.80;;;;;;5073617;28;20055;-87
2022/01/06 14:14:06;;;;;;;30.10;21.73;;;153.80;2252.80;;;;;;5073789;28;20021;-88
2022/01/06 14:16:32;;;;;;;45.05;31.48;;;153.70;2252.80;;;;;;5073402;28;20363;-85
2022/01/06 14:19:40;;;;;;;43.40;30.33;;;153.70;2252.80;;;;;;5073538;28;20021;-87
2022/01/06 14:22:59;;;;;;;42.97;32.88;;;153.70;2252.80;;;;;;5068111;28;20119;-87
2022/01/06 14:25:34;;;;;;;43.65;30.13;;;153.70;2252.80;;;;;;5072770;28;20048;-85
2022/01/06 14:28:00;;;;;;;50.63;31.58;;;153.80;2252.80;;;;;;5072912;28;20337;-83
2022/01/06 14:30:26;;;;;;;35.65;25.85;;;153.70;2252.80;;;;;;5073337;28;20019;-87
2022/01/06 14:33:03;;;;;;;38.40;29.10;;;153.60;2252.80;;;;;;5073498;28;20024;-86
2022/01/06 14:35:29;;;;;;;29.33;22.45;;;153.60;2252.80;;;;;;5073186;28;20031;-84
2022/01/06 14:37:58;;;;;;;30.48;25.98;;;153.60;2252.80;;;;;;5073486;28;20517;-88
2022/01/06 14:40:24;;;;;;;33.05;26.85;;;153.60;2252.80;;;;;;5073020;28;20032;-86
2022/01/06 14:42:50;;;;;;;33.85;26.63;;;128.90;2252.80;;;;;;5073069;28;20041;-86
2022/01/06 14:45:16;;;;;;;35.35;28.95;;;153.60;2252.80;;;;;;5072847;28;20024;-88
2022/01/06 14:47:42;;;;;;;35.22;29.70;;;153.70;2252.80;;;;;;5073420;28;20016;-87
2022/01/06 14:50:10;;;;;;;40.15;31.05;;;153.70;2252.80;;;;;;5074722;28;20097;-87
2022/01/06 14:52:40;;;;;;;36.65;27.92;;;153.60;2252.80;;;;;;5071810;28;20066;-87
2022/01/06 14:55:07;;;;;;;49.60;36.67;;;153.70;2252.80;;;;;;5072673;28;20482;-86
2022/01/06 14:57:33;;;;;;;44.97;32.85;;;153.70;2252.80;;;;;;5074073;28;20028;-88
2022/01/06 14:59:59;;;;;;;37.47;27.80;;;153.60;2252.80;;;;;;5075541;28;20332;-88
2022/01/06 15:02:25;;;;;;;37.55;26.73;;;153.70;2252.80;;;;;;5094652;28;20035;-86
2022/01/06 15:04:51;;;;;;;32.65;25.05;;;128.90;2252.80;;;;;;5073992;28;20367;-85
2022/01/06 15:07:17;;;;;;;34.08;24.25;;;128.90;2252.80;;;;;;5073295;28;20029;-87
2022/01/06 15:09:43;;;;;;;29.27;21.02;;;128.80;2252.80;;;;;;5072839;28;20027;-88
2022/01/06 15:12:09;;;;;;;26.67;20.27;;;128.80;2252.80;;;;;;5073027;28;20055;-87
2022/01/06 15:14:35;;;;;;;28.15;22.08;;;128.70;2252.80;;;;;;5072896;28;20038;-87
2022/01/06 15:17:01;;;;;;;26.35;20.00;;;128.80;2252.80;;;;;;5073069;28;20112;-88
2022/01/06 15:19:26;;;;;;;29.50;21.48;;;128.60;2252.80;;;;;;5073888;28;20025;-88
2022/01/06 15:21:52;;;;;;;35.65;24.27;;;128.60;2252.80;;;;;;5072745;28;20021;-88
2022/01/06 15:24:18;;;;;;;33.30;25.35;;;128.60;2252.80;;;;;;5073097;28;20460;-87
2022/01/06 15:26:44;;;;;;;53.55;38.25;;;128.60;2252.80;;;;;;5073052;28;20044;-88
2022/01/06 15:29:09;;;;;;;51.60;36.42;;;128.60;2252.80;;;;;;5073886;28;20044;-88
2022/01/06 15:31:35;;;;;;;40.60;30.30;;;128.60;2252.80;;;;;;5076675;28;20028;-86
2022/01/06 15:34:01;;;;;;;35.55;25.75;;;128.70;2252.80;;;;;;5076609;28;20031;-86
2022/01/06 15:36:27;;;;;;;44.60;31.17;;;128.70;2252.80;;;;;;5076801;28;20074;-87
2022/01/06 15:38:56;;;;;;;42.70;29.98;;;128.60;2252.80;;;;;;5076437;28;20021;-85
2022/01/06 15:41:29;;;;;;;55.05;37.88;;;128.60;2252.80;;;;;;5093511;28;20060;-85
2022/01/06 15:43:58;;;;;;;241.32;154.32;;;128.60;2252.80;;;;;;5076411;28;20047;-85
2022/01/06 15:46:28;;;;;;;85.72;57.92;;;128.60;2252.80;;;;;;5076156;28;20025;-83
2022/01/06 15:48:57;;;;;;;56.60;35.67;;;128.50;2252.80;;;;;;5075290;28;20013;-88
2022/01/06 15:51:26;;;;;;;41.22;30.25;;;128.80;2252.80;;;;;;5075979;28;20028;-86
2022/01/06 15:53:52;;;;;;;36.40;27.77;;;128.60;2252.80;;;;;;5076149;28;20020;-87
2022/01/06 15:56:18;;;;;;;41.58;29.15;;;128.50;2252.80;;;;;;5075985;28;20031;-89
2022/01/06 15:58:45;;;;;;;41.45;30.42;;;128.40;2252.80;;;;;;5076221;28;20448;-85
2022/01/06 16:06:42;;;;;;;47.05;28.98;;;128.30;2252.80;;;;;;5077097;28;20253;-91
2022/01/06 16:09:08;;;;;;;49.83;30.98;;;128.30;2252.80;;;;;;5075172;28;20484;-80
2022/01/06 16:11:36;;;;;;;37.67;23.52;;;128.30;2252.80;;;;;;5075511;28;20024;-85
2022/01/06 16:14:03;;;;;;;55.10;39.80;;;128.20;2252.80;;;;;;5076628;28;20365;-85
2022/01/06 16:16:32;;;;;;;52.17;31.35;;;128.30;2252.80;;;;;;5075501;28;20442;-85
2022/01/06 16:18:58;;;;;;;46.75;32.08;;;128.30;2252.80;;;;;;5075633;28;20123;-88
2022/01/06 16:21:27;;;;;;;54.17;38.10;;;128.20;2252.80;;;;;;5075700;28;20117;-89
2022/01/06 16:23:55;;;;;;;52.42;38.20;;;128.30;2252.80;;;;;;5075589;28;20024;-88
2022/01/06 16:26:26;;;;;;;27.48;21.40;;;128.30;2252.80;;;;;;5075491;28;20020;-87
2022/01/06 16:28:52;;;;;;;47.67;33.58;;;128.20;2252.80;;;;;;5073284;28;20028;-88
2022/01/06 16:34:36;;;;;;;34.20;24.67;;;128.20;2252.80;;;;;;5070772;28;20020;-86
2022/01/06 16:37:11;;;;;;;65.00;40.17;;;128.30;2252.80;;;;;;5076482;28;20027;-89
2022/01/06 16:40:07;;;;;;;45.10;28.00;;;128.20;2252.80;;;;;;5075622;28;20012;-89
2022/01/06 16:43:06;;;;;;;52.47;33.88;;;128.20;2252.80;;;;;;5075284;28;20476;-89
2022/01/06 16:45:42;;;;;;;66.20;48.45;;;128.10;2252.80;;;;;;5075065;28;20029;-88
2022/01/06 16:48:10;;;;;;;48.67;36.30;;;128.20;2252.80;;;;;;5075390;28;20016;-87
2022/01/06 16:50:39;;;;;;;44.55;33.75;;;128.20;2252.80;;;;;;5074896;28;20013;-87
2022/01/06 16:53:06;;;;;;;54.60;39.83;;;128.10;2252.80;;;;;;5075264;28;20474;-89
2022/01/06 16:55:45;;;;;;;54.30;39.53;;;128.10;2252.80;;;;;;5075216;28;20027;-89
2022/01/06 16:58:14;;;;;;;51.75;35.40;;;128.10;2252.80;;;;;;5075268;28;20112;-90
2022/01/06 17:00:44;;;;;;;40.42;27.92;;;128.10;2252.80;;;;;;5074913;28;20108;-89
2022/01/06 17:03:35;;;;;;;50.63;33.40;;;128.00;2252.80;;;;;;5074914;28;20115;-88
2022/01/06 17:06:24;;;;;;;58.55;37.88;;;128.10;2252.80;;;;;;5075067;28;20025;-88
2022/01/06 17:08:57;;;;;;;49.67;34.53;;;128.10;2252.80;;;;;;5074071;28;20032;-88
2022/01/06 17:11:31;;;;;;;54.38;39.45;;;128.60;2252.80;;;;;;5091312;28;20024;-88
2022/01/06 17:13:57;;;;;;;43.72;30.90;;;128.30;2252.80;;;;;;5074333;28;20528;-87
2022/01/06 17:16:23;;;;;;;42.13;30.40;;;128.20;2252.80;;;;;;5074555;28;20078;-85
2022/01/06 17:18:52;;;;;;;37.80;26.25;;;128.30;2252.80;;;;;;5074774;28;20105;-84
2022/01/06 17:21:28;;;;;;;48.28;23.42;;;128.30;2252.80;;;;;;5074199;28;20016;-88
2022/01/06 17:23:54;;;;;;;39.10;26.50;;;128.30;2252.80;;;;;;5074063;28;20035;-88
2022/01/06 17:26:55;;;;;;;32.28;23.65;;;128.30;2252.80;;;;;;5071617;28;20028;-88
2022/01/06 17:29:54;;;;;;;29.92;23.38;;;128.20;2252.80;;;;;;5074006;28;20036;-89
2022/01/06 17:32:20;;;;;;;45.42;30.55;;;128.10;2252.80;;;;;;5037141;28;20132;-87
2022/01/06 17:34:48;;;;;;;84.18;47.53;;;128.10;2252.80;;;;;;5054164;28;20515;-89
2022/01/06 17:37:21;;;;;;;42.55;29.75;;;128.10;2252.80;;;;;;5074580;28;20025;-91
2022/01/06 17:40:03;;;;;;;42.78;29.60;;;128.20;2252.80;;;;;;5093704;28;20024;-88
2022/01/06 17:42:29;;;;;;;37.30;27.25;;;128.20;2252.80;;;;;;5093791;28;20479;-88
2022/01/06 17:44:59;;;;;;;28.95;22.27;;;128.10;2252.80;;;;;;5103056;28;20006;-90
2022/01/06 17:47:25;;;;;;;26.30;22.33;;;128.00;2252.80;;;;;;5109469;28;20020;-89
2022/01/06 17:49:51;;;;;;;35.55;29.98;;;128.00;2252.80;;;;;;5095151;28;20012;-89
2022/01/06 17:52:42;;;;;;;32.80;27.35;;;128.10;2252.80;;;;;;5093984;28;20024;-90
2022/01/06 17:55:08;;;;;;;30.63;23.45;;;128.10;2252.80;;;;;;5093721;28;20031;-89
2022/01/06 17:57:34;;;;;;;32.00;22.30;;;128.10;2252.80;;;;;;5094226;28;20456;-91
2022/01/06 18:00:01;;;;;;;33.65;24.98;;;128.10;2252.80;;;;;;5094153;28;20111;-88
2022/01/06 18:02:27;;;;;;;40.25;27.80;;;128.20;2252.80;;;;;;5093659;28;20032;-88
2022/01/06 18:04:58;;;;;;;21.45;17.20;;;128.20;2252.80;;;;;;5093725;28;20022;-87
2022/01/06 18:07:37;;;;;;;29.65;22.75;;;128.10;2252.80;;;;;;5093109;28;20078;-88
2022/01/06 18:12:56;;;;;;;30.38;23.77;;;128.20;2252.80;;;;;;5094982;28;20046;-91
2022/01/06 18:15:22;;;;;;;37.33;27.67;;;128.10;2252.80;;;;;;5094013;28;20031;-89
2022/01/06 18:17:49;;;;;;;26.65;19.13;;;128.20;2252.80;;;;;;5093779;28;20024;-89
2022/01/06 18:20:16;;;;;;;42.85;32.80;;;128.10;2252.80;;;;;;5093782;28;20020;-89
2022/01/06 18:22:43;;;;;;;32.20;24.58;;;128.10;2252.80;;;;;;5093728;28;20052;-90
2022/01/06 18:25:10;;;;;;;29.35;21.10;;;128.00;2252.80;;;;;;5093787;28;20020;-90
2022/01/06 18:27:36;;;;;;;41.63;30.10;;;128.60;2252.80;;;;;;5093812;28;20024;-87
2022/01/06 18:30:02;;;;;;;92.28;54.22;;;128.00;2252.80;;;;;;5093661;28;20026;-88
2022/01/06 18:32:28;;;;;;;63.42;37.83;;;103.30;2227.20;;;;;;5093789;28;20020;-89
2022/01/06 18:34:53;;;;;;;68.45;46.88;;;128.00;2252.80;;;;;;5094087;28;20024;-89
2022/01/06 18:37:19;;;;;;;59.28;40.83;;;128.00;2252.80;;;;;;5093907;28;20444;-88
2022/01/06 18:39:45;;;;;;;56.55;39.85;;;128.00;2252.80;;;;;;5093962;28;20106;-91
2022/01/06 18:42:11;;;;;;;39.70;30.52;;;128.10;2252.80;;;;;;5094422;28;20044;-88
2022/01/06 18:44:37;;;;;;;43.58;31.85;;;128.10;2252.80;;;;;;5093780;28;20020;-88
2022/01/06 18:47:03;;;;;;;48.53;33.65;;;128.10;2252.80;;;;;;5093752;28;20448;-89
2022/01/06 18:49:28;;;;;;;48.22;34.22;;;128.10;2252.80;;;;;;5094747;28;20103;-88
2022/01/06 18:51:54;;;;;;;29.27;21.48;;;128.10;2252.80;;;;;;5093597;28;20047;-89
2022/01/06 18:54:20;;;;;;;28.23;19.48;;;128.10;2252.80;;;;;;5093462;28;20017;-90